X  Cerrar Datos meteorológicos de aviación METAR     YPAD Adelaide International Airport
Temperatura
9°C Temperatura
7°C Punto de rocío
87% Humedad



Viento
8 KM/H
5 MPH
2 M/S
4 NUDO



150°
SSE
Condiciones actuales

Parcialmente nublado Parcialmente nublado
Presión 1020.92 (hPa) - 30.15 (inHg)
Visibilidad 6.2 (milla) - 10 (km)
Aeropuerto
Código de aeropuerto YPAD

localidad: Adelaide International Airport
Distancia: 20 (km)

Metar:
YPAD 091400Z 15004KT 9999 FEW035 09/07 Q1021 NOSIG

Hora: 09-08-2020 11:30 pm ACST